Lady Goodgirl — 9H8679 — position and weather

sailwx.info

Track history (hours):
 
Tides and Currents Weather Stations Pressure Air Temp Water Temp Dewpoint Dewpoint Depression Visibility Wind Speed Wind Dir Waves Ship Positions

Lady Goodgirl

Last reported at 2017-Aug-16 07:09 UTC. Time now 2017-Aug-19 15:08 UTC.
Position N 37°53' E 023°15'.

Length 43 m; draft 3 m.

Type: Pleasure craft. MMSI: 256670000.

Date/timePositionNaut miles runAvg speedWind from/ knotsBaromVisibWave heightAir tempDewpointWater temp
2017-Aug-16 07:09N 37°53' E 023°15'210.6
2017-Aug-16 06:59N 37°53' E 023°17'510.9
2017-Aug-16 06:30N 37°52' E 023°24'510.8
2017-Aug-16 06:00N 37°51' E 023°30'510.6
2017-Aug-16 05:31N 37°51' E 023°37'510.0
2017-Aug-16 05:01N 37°49' E 023°43'4 7.0
2017-Aug-16 04:30N 37°48' E 023°47'0 0.1
2017-Aug-16 04:00N 37°48' E 023°47'0 0.0
2017-Aug-16 03:30N 37°48' E 023°47'0 0.0
2017-Aug-16 03:01N 37°48' E 023°47'0 0.0
2017-Aug-16 02:31N 37°48' E 023°47'0 0.0
2017-Aug-16 01:59N 37°48' E 023°47'0 0.0
2017-Aug-16 01:30N 37°48' E 023°47'0 0.0
2017-Aug-16 01:00N 37°48' E 023°47'0 0.0
2017-Aug-16 00:30N 37°48' E 023°47'0 0.0
2017-Aug-16 00:00N 37°48' E 023°47'0 0.0
2017-Aug-15 23:30N 37°48' E 023°47'0 0.0
2017-Aug-15 23:00N 37°48' E 023°47'0 0.0
2017-Aug-15 22:30N 37°48' E 023°47'0 0.1
2017-Aug-15 22:00N 37°48' E 023°47'0 0.0
2017-Aug-15 21:30N 37°48' E 023°47'0 0.0
2017-Aug-15 21:00N 37°48' E 023°47'0 0.0
2017-Aug-15 20:30N 37°48' E 023°47'0 0.0
2017-Aug-15 20:00N 37°48' E 023°47'0 0.0
2017-Aug-15 19:30N 37°48' E 023°47'0 0.0
2017-Aug-15 19:00N 37°48' E 023°47'0 0.0
2017-Aug-15 18:29N 37°48' E 023°47'0 0.0
2017-Aug-15 18:01N 37°48' E 023°47'0 0.0
2017-Aug-15 17:30N 37°48' E 023°47'0 0.0
2017-Aug-15 17:00N 37°48' E 023°47'0 0.0
2017-Aug-15 16:30N 37°48' E 023°47'0 0.0
2017-Aug-15 16:00N 37°48' E 023°47'0 0.0
2017-Aug-15 15:30N 37°48' E 023°47'0 0.0
2017-Aug-15 15:00N 37°48' E 023°47'0 0.0
2017-Aug-15 14:30N 37°48' E 023°47'0 0.0
2017-Aug-15 14:00N 37°48' E 023°47'3 6.0
2017-Aug-15 13:30N 37°45' E 023°46'5 9.6
2017-Aug-15 13:00N 37°41' E 023°43'5 9.6
2017-Aug-15 12:31N 37°37' E 023°39'16 9.8
2017-Aug-15 10:53N 37°24' E 023°29'4 0.1
2017-Aug-14 00:34N 37°24' E 023°24'1 4.7
2017-Aug-14 00:18N 37°24' E 023°25'910.6
2017-Aug-13 23:28N 37°26' E 023°36'5410.7
2017-Aug-13 18:24N 37°31' E 024°44'411.2
2017-Aug-13 18:00N 37°31' E 024°49'610.9
2017-Aug-13 17:29N 37°31' E 024°56'510.9
2017-Aug-13 17:00N 37°29' E 025°03'510.7
2017-Aug-13 16:30N 37°28' E 025°09'510.4
2017-Aug-13 16:00N 37°26' E 025°15'4 7.8
2017-Aug-13 15:30N 37°24' E 025°20'1 1.5
2017-Aug-13 14:59N 37°25' E 025°20'0 0.0
2017-Aug-13 14:29N 37°25' E 025°20'0 0.0
2017-Aug-13 13:56N 37°25' E 025°20'0 0.0
2017-Aug-13 13:23N 37°25' E 025°20'0 0.0
2017-Aug-13 12:59N 37°25' E 025°20'0 0.0
2017-Aug-13 12:29N 37°25' E 025°20'0 0.1
2017-Aug-13 11:56N 37°25' E 025°20'1 1.8
2017-Aug-13 11:30N 37°25' E 025°19'0 0.0
2017-Aug-13 11:00N 37°25' E 025°19'0 0.0
2017-Aug-13 10:27N 37°25' E 025°19'0 0.0
2017-Aug-13 10:00N 37°25' E 025°19'0 0.0
2017-Aug-13 09:30N 37°25' E 025°19'0 0.0
2017-Aug-13 08:57N 37°25' E 025°19'0 0.0
2017-Aug-13 08:31N 37°25' E 025°19'0 0.0
2017-Aug-13 08:00N 37°25' E 025°19'0 0.0
2017-Aug-13 07:30N 37°25' E 025°19'0 0.0
2017-Aug-13 07:00N 37°25' E 025°19'0 0.0
2017-Aug-13 06:30N 37°25' E 025°19'0 0.0
2017-Aug-13 06:00N 37°25' E 025°19'0 0.0
2017-Aug-13 05:30N 37°25' E 025°19'0 0.0
2017-Aug-13 05:00N 37°25' E 025°19'0 0.0
2017-Aug-13 04:30N 37°25' E 025°19'0 0.0
2017-Aug-13 04:00N 37°25' E 025°19'0 0.0
2017-Aug-13 03:30N 37°25' E 025°19'0 0.1
2017-Aug-13 03:00N 37°25' E 025°19'0 0.0
2017-Aug-13 02:30N 37°25' E 025°19'0 0.0
2017-Aug-13 02:00N 37°25' E 025°19'0 0.0
2017-Aug-13 01:30N 37°25' E 025°19'0 0.0
2017-Aug-13 01:00N 37°25' E 025°19'0 0.0
2017-Aug-13 00:30N 37°25' E 025°19'0 0.0
2017-Aug-13 00:00N 37°25' E 025°19'0 0.0
2017-Aug-12 23:30N 37°25' E 025°19'0 0.0
2017-Aug-12 23:00N 37°25' E 025°19'0 0.0
2017-Aug-12 22:30N 37°25' E 025°19'0 0.0
2017-Aug-12 22:00N 37°25' E 025°19'0 0.0
2017-Aug-12 21:30N 37°25' E 025°19'0 0.0
2017-Aug-12 21:00N 37°25' E 025°19'0 0.0
2017-Aug-12 20:30N 37°25' E 025°19'0 0.0
2017-Aug-12 20:00N 37°25' E 025°19'0 0.0
2017-Aug-12 19:30N 37°25' E 025°19'0 0.0
2017-Aug-12 19:00N 37°25' E 025°19'0 0.1
2017-Aug-12 18:30N 37°25' E 025°19'0 0.0
2017-Aug-12 18:00N 37°25' E 025°19'0 0.0
2017-Aug-12 17:30N 37°25' E 025°19'0 0.0
2017-Aug-12 17:00N 37°25' E 025°19'0 0.0
2017-Aug-12 16:30N 37°25' E 025°19'0 0.0
2017-Aug-12 16:00N 37°25' E 025°19'0 0.0
2017-Aug-12 15:30N 37°25' E 025°19'0 0.0
2017-Aug-12 15:00N 37°25' E 025°19'0 0.0
2017-Aug-12 14:30N 37°25' E 025°19'0 0.0
2017-Aug-12 14:00N 37°25' E 025°19'0 0.0
2017-Aug-12 13:30N 37°25' E 025°19'0 0.9
2017-Aug-12 13:00N 37°24' E 025°19'3 5.3
2017-Aug-12 12:30N 37°26' E 025°16'510.5
2017-Aug-12 12:00N 37°28' E 025°10'611.2
2017-Aug-12 11:30N 37°31' E 025°04'510.9
2017-Aug-12 11:00N 37°33' E 024°58'510.7
2017-Aug-12 10:30N 37°34' E 024°51'510.5
2017-Aug-12 10:00N 37°35' E 024°45'4810.1
2017-Aug-12 05:15N 37°39' E 023°45'310.3
2017-Aug-12 05:00N 37°41' E 023°42'611.1
2017-Aug-12 04:30N 37°46' E 023°39'510.7
2017-Aug-12 04:00N 37°51' E 023°37'510.2
2017-Aug-12 03:30N 37°56' E 023°39'1 0.9
2017-Aug-12 02:56N 37°56' E 023°39'0 0.0
2017-Aug-12 02:28N 37°56' E 023°39'0 0.0
2017-Aug-12 01:58N 37°56' E 023°39'0 0.0
2017-Aug-12 01:28N 37°56' E 023°39'0 0.0
2017-Aug-12 00:58N 37°56' E 023°39'0 0.0
2017-Aug-12 00:28N 37°56' E 023°39'0 0.0
2017-Aug-11 23:58N 37°56' E 023°39'0 0.0
2017-Aug-11 23:28N 37°56' E 023°39'0 0.0
2017-Aug-11 22:58N 37°56' E 023°39'0 0.0
2017-Aug-11 22:28N 37°56' E 023°39'0 0.0
2017-Aug-11 21:55N 37°56' E 023°39'0 0.0
2017-Aug-11 21:28N 37°56' E 023°39'0 0.0
2017-Aug-11 20:58N 37°56' E 023°39'0 0.0
2017-Aug-11 20:28N 37°56' E 023°39'0 0.0
2017-Aug-11 19:58N 37°56' E 023°39'0 0.0
2017-Aug-11 19:28N 37°56' E 023°39'0 0.0
2017-Aug-11 18:58N 37°56' E 023°39'0 0.0
2017-Aug-11 18:28N 37°56' E 023°39'0 0.0
2017-Aug-11 17:58N 37°56' E 023°39'0 0.0
2017-Aug-11 17:25N 37°56' E 023°39'0 0.0
2017-Aug-11 16:58N 37°56' E 023°39'0 0.0
2017-Aug-11 16:28N 37°56' E 023°39'0 0.0
2017-Aug-11 15:58N 37°56' E 023°39'0 0.0
2017-Aug-11 15:25N 37°56' E 023°39'0 0.0
2017-Aug-11 14:58N 37°56' E 023°39'0 0.0
2017-Aug-11 13:55N 37°56' E 023°39'0 0.0
2017-Aug-11 13:28N 37°56' E 023°39'0 0.0
2017-Aug-11 12:58N 37°56' E 023°39'0 0.0
2017-Aug-11 12:28N 37°56' E 023°39'0 0.0
2017-Aug-11 11:58N 37°56' E 023°39'0 0.0
2017-Aug-11 11:28N 37°56' E 023°39'0 0.0
2017-Aug-11 10:58N 37°56' E 023°39'0 0.0
2017-Aug-11 10:25N 37°56' E 023°39'0 0.0
2017-Aug-11 09:58N 37°56' E 023°39'0 0.0
2017-Aug-11 09:22N 37°56' E 023°39'0 0.0
2017-Aug-11 08:58N 37°56' E 023°39'0 0.0
2017-Aug-11 08:28N 37°56' E 023°39'0 0.0
2017-Aug-11 07:58N 37°56' E 023°39'0 0.0
2017-Aug-11 07:28N 37°56' E 023°39'0 0.0
2017-Aug-11 06:58N 37°56' E 023°39'0 0.0
2017-Aug-11 06:28N 37°56' E 023°39'0 0.0
2017-Aug-11 05:55N 37°56' E 023°39'0 0.0
2017-Aug-11 05:28N 37°56' E 023°39'0 0.0
2017-Aug-11 04:58N 37°56' E 023°39'0 0.0
2017-Aug-11 04:28N 37°56' E 023°39'0 0.0
2017-Aug-11 03:58N 37°56' E 023°39'0 0.0
2017-Aug-11 03:28N 37°56' E 023°39'0 0.0
2017-Aug-11 02:58N 37°56' E 023°39'0 0.0
2017-Aug-11 02:28N 37°56' E 023°39'0 0.0
2017-Aug-11 01:55N 37°56' E 023°39'0 0.0
2017-Aug-11 01:28N 37°56' E 023°39'0 0.0
2017-Aug-11 00:58N 37°56' E 023°39'0 0.0
2017-Aug-11 00:28N 37°56' E 023°39'0 0.0
2017-Aug-10 23:58N 37°56' E 023°39'0 0.0
2017-Aug-10 23:28N 37°56' E 023°39'0 0.0
2017-Aug-10 22:58N 37°56' E 023°39'0 0.0
2017-Aug-10 22:28N 37°56' E 023°39'0 0.0
2017-Aug-10 21:55N 37°56' E 023°39'0 0.0
2017-Aug-10 21:28N 37°56' E 023°39'0 0.0
2017-Aug-10 20:58N 37°56' E 023°39'0 0.0
2017-Aug-10 20:28N 37°56' E 023°39'0 0.0
2017-Aug-10 19:58N 37°56' E 023°39'0 0.0
2017-Aug-10 19:25N 37°56' E 023°39'0 0.0
2017-Aug-10 18:58N 37°56' E 023°39'0 0.0
2017-Aug-10 18:28N 37°56' E 023°39'0 0.0
2017-Aug-10 17:58N 37°56' E 023°39'0 0.0
2017-Aug-10 17:28N 37°56' E 023°39'0 0.0
2017-Aug-10 16:58N 37°56' E 023°39'0 0.0
2017-Aug-10 16:28N 37°56' E 023°39'0 0.0
2017-Aug-10 16:01N 37°56' E 023°39'0 0.0
2017-Aug-10 15:30N 37°56' E 023°39'0 0.0
2017-Aug-10 15:00N 37°56' E 023°39'0 0.0
2017-Aug-10 14:30N 37°56' E 023°39'0 0.0
2017-Aug-10 13:57N 37°56' E 023°39'0 0.0
2017-Aug-10 13:30N 37°56' E 023°39'0 0.0
2017-Aug-10 12:57N 37°56' E 023°39'0 0.0
2017-Aug-10 12:30N 37°56' E 023°39'0 0.0
2017-Aug-10 12:00N 37°56' E 023°39'0 0.0
2017-Aug-10 11:30N 37°56' E 023°39'0 0.0
2017-Aug-10 11:00N 37°56' E 023°39'0 0.0
2017-Aug-10 10:30N 37°56' E 023°39'0 0.0
2017-Aug-10 09:54N 37°56' E 023°39'0 0.0
2017-Aug-10 09:30N 37°56' E 023°39'0 0.0
2017-Aug-10 09:00N 37°56' E 023°39'0 0.0
2017-Aug-10 08:30N 37°56' E 023°39'0 0.0
2017-Aug-10 08:00N 37°56' E 023°39'0 0.0
2017-Aug-10 07:30N 37°56' E 023°39'0 0.0
2017-Aug-10 07:00N 37°56' E 023°39'0 0.0
2017-Aug-10 06:30N 37°56' E 023°39'0 0.0
2017-Aug-10 06:00N 37°56' E 023°39'0 0.0
2017-Aug-10 05:30N 37°56' E 023°39'0 0.0
2017-Aug-10 05:00N 37°56' E 023°39'0 0.0
2017-Aug-10 04:30N 37°56' E 023°39'0 0.0
2017-Aug-10 04:00N 37°56' E 023°39'0 0.0
2017-Aug-10 03:30N 37°56' E 023°39'0 0.0
2017-Aug-10 03:00N 37°56' E 023°39'0 0.0
2017-Aug-10 02:27N 37°56' E 023°39'0 0.0
2017-Aug-10 01:57N 37°56' E 023°39'0 0.0
2017-Aug-10 01:30N 37°56' E 023°39'0 0.0
2017-Aug-10 00:57N 37°56' E 023°39'0 0.0
2017-Aug-10 00:30N 37°56' E 023°39'0 0.0
2017-Aug-10 00:00N 37°56' E 023°39'0 0.0
2017-Aug-09 23:30N 37°56' E 023°39'0 0.0
2017-Aug-09 23:00N 37°56' E 023°39'0 0.0
2017-Aug-09 22:30N 37°56' E 023°39'0 0.0
2017-Aug-09 21:54N 37°56' E 023°39'0 0.0
2017-Aug-09 21:30N 37°56' E 023°39'0 0.0
2017-Aug-09 21:00N 37°56' E 023°39'0 0.0
2017-Aug-09 20:30N 37°56' E 023°39'0 0.0
2017-Aug-09 19:57N 37°56' E 023°39'0 0.0
2017-Aug-09 19:30N 37°56' E 023°39'0 0.0
2017-Aug-09 19:00N 37°56' E 023°39'0 0.0
2017-Aug-09 18:30N 37°56' E 023°39'0 0.0
2017-Aug-09 18:00N 37°56' E 023°39'0 0.0
2017-Aug-09 17:30N 37°56' E 023°39'0 0.0
2017-Aug-09 16:57N 37°56' E 023°39'0 0.0
2017-Aug-09 16:30N 37°56' E 023°39'0 0.0
2017-Aug-09 16:00N 37°56' E 023°39'0 0.0
2017-Aug-09 15:24N 37°56' E 023°39'0 0.0
2017-Aug-09 15:00N 37°56' E 023°39'0 0.0
2017-Aug-09 14:30N 37°56' E 023°39'0 0.0
2017-Aug-09 14:00N 37°56' E 023°39'0 0.0
2017-Aug-09 13:30N 37°56' E 023°39'0 0.0
2017-Aug-09 12:57N 37°56' E 023°39'0 0.0
2017-Aug-09 12:30N 37°56' E 023°39'0 0.0
2017-Aug-09 12:00N 37°56' E 023°39'0 0.0
2017-Aug-09 11:27N 37°56' E 023°39'0 0.0
2017-Aug-09 10:57N 37°56' E 023°39'0 0.0
2017-Aug-09 10:30N 37°56' E 023°39'0 0.0
2017-Aug-09 10:00N 37°56' E 023°39'0 0.0
2017-Aug-09 09:30N 37°56' E 023°39'0 0.0
2017-Aug-09 09:00N 37°56' E 023°39'0 0.0
2017-Aug-09 08:30N 37°56' E 023°39'0 0.2
2017-Aug-09 08:00N 37°56' E 023°39'0 0.0
2017-Aug-09 07:30N 37°56' E 023°39'0 0.0
2017-Aug-09 06:57N 37°56' E 023°39'0 0.0
2017-Aug-09 06:30N 37°56' E 023°39'0 0.0
2017-Aug-09 06:00N 37°56' E 023°39'0 0.0
2017-Aug-09 05:30N 37°56' E 023°39'0 0.0
2017-Aug-09 05:00N 37°56' E 023°39'0 0.0
2017-Aug-09 04:29N 37°56' E 023°39'0 0.0
2017-Aug-09 03:59N 37°56' E 023°39'0 0.0
2017-Aug-09 03:29N 37°56' E 023°39'0 0.0
2017-Aug-09 02:59N 37°56' E 023°39'0 0.0
2017-Aug-09 02:26N 37°56' E 023°39'0 0.0
2017-Aug-09 01:59N 37°56' E 023°39'0 0.0
2017-Aug-09 01:29N 37°56' E 023°39'0 0.0
2017-Aug-09 00:59N 37°56' E 023°39'0 0.0
2017-Aug-09 00:29N 37°56' E 023°39'0 0.0
2017-Aug-08 23:59N 37°56' E 023°39'0 0.0
2017-Aug-08 23:29N 37°56' E 023°39'0 0.0
2017-Aug-08 22:59N 37°56' E 023°39'0 0.0
2017-Aug-08 22:29N 37°56' E 023°39'0 0.0
2017-Aug-08 21:59N 37°56' E 023°39'0 0.0
2017-Aug-08 21:29N 37°56' E 023°39'0 0.0
2017-Aug-08 20:59N 37°56' E 023°39'0 0.0
2017-Aug-08 20:20N 37°56' E 023°39'0 0.0
2017-Aug-08 19:59N 37°56' E 023°39'0 0.0
2017-Aug-08 19:29N 37°56' E 023°39'0 0.0
2017-Aug-08 18:59N 37°56' E 023°39'0 0.0
2017-Aug-08 18:29N 37°56' E 023°39'0 0.0
2017-Aug-08 17:59N 37°56' E 023°39'0 0.0
2017-Aug-08 17:29N 37°56' E 023°39'0 0.0
2017-Aug-08 16:59N 37°56' E 023°39'0 0.0
2017-Aug-08 16:29N 37°56' E 023°39'0 0.0
2017-Aug-08 15:59N 37°56' E 023°39'0 0.0
2017-Aug-08 15:29N 37°56' E 023°39'0 0.0
2017-Aug-08 14:56N 37°56' E 023°39'0 0.0
2017-Aug-08 14:29N 37°56' E 023°39'0 0.0
2017-Aug-08 13:56N 37°56' E 023°39'0 0.0
2017-Aug-08 13:29N 37°56' E 023°39'0 0.0
2017-Aug-08 12:56N 37°56' E 023°39'0 0.0
2017-Aug-08 12:29N 37°56' E 023°39'0 0.0
2017-Aug-08 11:59N 37°56' E 023°39'0 0.0
2017-Aug-08 11:29N 37°56' E 023°39'0 0.0
2017-Aug-08 10:59N 37°56' E 023°39'0 0.0
2017-Aug-08 10:29N 37°56' E 023°39'0 0.0
2017-Aug-08 09:59N 37°56' E 023°39'0 0.0
2017-Aug-08 09:20N 37°56' E 023°39'0 0.0
2017-Aug-08 08:56N 37°56' E 023°39'0 0.0
2017-Aug-08 08:26N 37°56' E 023°39'0 0.0
2017-Aug-08 07:59N 37°56' E 023°39'0 0.0
2017-Aug-08 07:29N 37°56' E 023°39'0 0.0
2017-Aug-08 06:59N 37°56' E 023°39'0 0.0
2017-Aug-08 06:29N 37°56' E 023°39'0 0.0
2017-Aug-08 05:59N 37°56' E 023°39'0 0.0
2017-Aug-08 05:29N 37°56' E 023°39'0 0.0
2017-Aug-08 04:59N 37°56' E 023°39'0 0.0
2017-Aug-08 04:29N 37°56' E 023°39'0 0.0
2017-Aug-08 03:59N 37°56' E 023°39'0 0.0
2017-Aug-08 03:29N 37°56' E 023°39'0 0.0
2017-Aug-08 02:59N 37°56' E 023°39'0 0.0
2017-Aug-08 02:29N 37°56' E 023°39'0 0.0
2017-Aug-08 01:56N 37°56' E 023°39'0 0.0
2017-Aug-08 01:29N 37°56' E 023°39'0 0.0
2017-Aug-08 00:59N 37°56' E 023°39'0 0.0
2017-Aug-08 00:26N 37°56' E 023°39'0 0.0
2017-Aug-07 23:59N 37°56' E 023°39'0 0.0
2017-Aug-07 23:29N 37°56' E 023°39'0 0.0
2017-Aug-07 22:59N 37°56' E 023°39'0 0.0
2017-Aug-07 22:29N 37°56' E 023°39'0 0.0
2017-Aug-07 21:59N 37°56' E 023°39'0 0.0
2017-Aug-07 21:29N 37°56' E 023°39'0 0.0
2017-Aug-07 20:56N 37°56' E 023°39'0 0.0
2017-Aug-07 20:29N 37°56' E 023°39'0 0.0
2017-Aug-07 19:59N 37°56' E 023°39'0 0.0
2017-Aug-07 19:29N 37°56' E 023°39'0 0.0
2017-Aug-07 18:59N 37°56' E 023°39'0 0.0
2017-Aug-07 18:29N 37°56' E 023°39'0 0.0
2017-Aug-07 17:59N 37°56' E 023°39'0 0.0
2017-Aug-07 17:28N 37°56' E 023°39'0 0.0
2017-Aug-07 16:58N 37°56' E 023°39'0 0.0
2017-Aug-07 16:28N 37°56' E 023°39'0 0.0
2017-Aug-07 15:58N 37°56' E 023°39'0 0.0
2017-Aug-07 15:28N 37°56' E 023°39'0 0.0
2017-Aug-07 14:58N 37°56' E 023°39'0 0.0
2017-Aug-07 14:25N 37°56' E 023°39'0 0.0
2017-Aug-07 13:58N 37°56' E 023°39'0 0.0
2017-Aug-07 13:28N 37°56' E 023°39'0 0.0
2017-Aug-07 12:58N 37°56' E 023°39'0 0.0
2017-Aug-07 12:28N 37°56' E 023°39'0 0.0
2017-Aug-07 11:55N 37°56' E 023°39'0 0.0
2017-Aug-07 11:28N 37°56' E 023°39'0 0.0
2017-Aug-07 10:58N 37°56' E 023°39'0 0.0
2017-Aug-07 10:28N 37°56' E 023°39'0 0.0
2017-Aug-07 09:58N 37°56' E 023°39'0 0.0
2017-Aug-07 09:28N 37°56' E 023°39'0 0.0
2017-Aug-07 08:52N 37°56' E 023°39'0 0.0
2017-Aug-07 08:28N 37°56' E 023°39'0 0.0
2017-Aug-07 07:58N 37°56' E 023°39'0 0.0
2017-Aug-07 07:28N 37°56' E 023°39'0 0.0
2017-Aug-07 06:55N 37°56' E 023°39'0 0.0
2017-Aug-07 06:28N 37°56' E 023°39'0 0.0
2017-Aug-07 05:58N 37°56' E 023°39'0 0.0
2017-Aug-07 05:28N 37°56' E 023°39'0 0.0
2017-Aug-07 04:55N 37°56' E 023°39'0 0.0
2017-Aug-07 04:28N 37°56' E 023°39'0 0.0
2017-Aug-07 03:58N 37°56' E 023°39'0 0.0
2017-Aug-07 03:28N 37°56' E 023°39'0 0.0
2017-Aug-07 02:58N 37°56' E 023°39'0 0.0
2017-Aug-07 02:25N 37°56' E 023°39'0 0.0
2017-Aug-07 01:58N 37°56' E 023°39'0 0.0
2017-Aug-07 01:28N 37°56' E 023°39'0 0.0
2017-Aug-07 00:58N 37°56' E 023°39'0 0.0
2017-Aug-07 00:25N 37°56' E 023°39'0 0.0
2017-Aug-06 23:58N 37°56' E 023°39'0 0.0
2017-Aug-06 23:28N 37°56' E 023°39'0 0.0
2017-Aug-06 22:58N 37°56' E 023°39'0 0.0
2017-Aug-06 22:28N 37°56' E 023°39'0 0.0
2017-Aug-06 21:58N 37°56' E 023°39'0 0.0
2017-Aug-06 21:28N 37°56' E 023°39'0 0.0
2017-Aug-06 20:58N 37°56' E 023°39'0 0.0
2017-Aug-06 20:28N 37°56' E 023°39'0 0.0
2017-Aug-06 19:58N 37°56' E 023°39'0 0.0
2017-Aug-06 19:25N 37°56' E 023°39'0 0.0
2017-Aug-06 18:58N 37°56' E 023°39'0 0.0
2017-Aug-06 18:28N 37°56' E 023°39'0 0.0
2017-Aug-06 17:58N 37°56' E 023°39'0 0.0
2017-Aug-06 17:25N 37°56' E 023°39'0 0.0
2017-Aug-06 16:58N 37°56' E 023°39'0 0.0
2017-Aug-06 16:28N 37°56' E 023°39'0 0.0
2017-Aug-06 15:55N 37°56' E 023°39'0 0.0
2017-Aug-06 15:28N 37°56' E 023°39'0 0.0
2017-Aug-06 14:55N 37°56' E 023°39'0 0.0
2017-Aug-06 14:25N 37°56' E 023°39'0 0.0
2017-Aug-06 13:55N 37°56' E 023°39'0 0.0
2017-Aug-06 13:28N 37°56' E 023°39'0 0.0
2017-Aug-06 12:55N 37°56' E 023°39'0 0.0
2017-Aug-06 12:28N 37°56' E 023°39'0 0.0
2017-Aug-06 11:55N 37°56' E 023°39'0 0.0
2017-Aug-06 11:28N 37°56' E 023°39'0 0.0
2017-Aug-06 10:55N 37°56' E 023°39'0 0.0
2017-Aug-06 10:25N 37°56' E 023°39'0 0.0
2017-Aug-06 09:55N 37°56' E 023°39'0 0.0
2017-Aug-06 09:28N 37°56' E 023°39'0 0.0
2017-Aug-06 08:58N 37°56' E 023°39'0 0.0
2017-Aug-06 08:28N 37°56' E 023°39'0 0.0
2017-Aug-06 07:55N 37°56' E 023°39'0 0.0
2017-Aug-06 07:28N 37°56' E 023°39'  
Track history (hours):
 
Tides and Currents Weather Stations Pressure Air Temp Water Temp Dewpoint Dewpoint Depression Visibility Wind Speed Wind Dir Waves Ship Positions

Lady Goodgirl

Last reported at 2017-Aug-16 07:09 UTC. Time now 2017-Aug-19 15:08 UTC.
Position N 37°53' E 023°15'.

Length 43 m; draft 3 m.

Type: Pleasure craft. MMSI: 256670000.

Date/timePositionNaut miles runAvg speedWind from/ knotsBaromVisibWave heightAir tempDewpointWater temp
2017-Aug-16 07:09N 37°53' E 023°15'210.6
2017-Aug-16 06:59N 37°53' E 023°17'510.9
2017-Aug-16 06:30N 37°52' E 023°24'510.8
2017-Aug-16 06:00N 37°51' E 023°30'510.6
2017-Aug-16 05:31N 37°51' E 023°37'510.0
2017-Aug-16 05:01N 37°49' E 023°43'4 7.0
2017-Aug-16 04:30N 37°48' E 023°47'0 0.1
2017-Aug-16 04:00N 37°48' E 023°47'0 0.0
2017-Aug-16 03:30N 37°48' E 023°47'0 0.0
2017-Aug-16 03:01N 37°48' E 023°47'0 0.0
2017-Aug-16 02:31N 37°48' E 023°47'0 0.0
2017-Aug-16 01:59N 37°48' E 023°47'0 0.0
2017-Aug-16 01:30N 37°48' E 023°47'0 0.0
2017-Aug-16 01:00N 37°48' E 023°47'0 0.0
2017-Aug-16 00:30N 37°48' E 023°47'0 0.0
2017-Aug-16 00:00N 37°48' E 023°47'0 0.0
2017-Aug-15 23:30N 37°48' E 023°47'0 0.0
2017-Aug-15 23:00N 37°48' E 023°47'0 0.0
2017-Aug-15 22:30N 37°48' E 023°47'0 0.1
2017-Aug-15 22:00N 37°48' E 023°47'0 0.0
2017-Aug-15 21:30N 37°48' E 023°47'0 0.0
2017-Aug-15 21:00N 37°48' E 023°47'0 0.0
2017-Aug-15 20:30N 37°48' E 023°47'0 0.0
2017-Aug-15 20:00N 37°48' E 023°47'0 0.0
2017-Aug-15 19:30N 37°48' E 023°47'0 0.0
2017-Aug-15 19:00N 37°48' E 023°47'0 0.0
2017-Aug-15 18:29N 37°48' E 023°47'0 0.0
2017-Aug-15 18:01N 37°48' E 023°47'0 0.0
2017-Aug-15 17:30N 37°48' E 023°47'0 0.0
2017-Aug-15 17:00N 37°48' E 023°47'0 0.0
2017-Aug-15 16:30N 37°48' E 023°47'0 0.0
2017-Aug-15 16:00N 37°48' E 023°47'0 0.0
2017-Aug-15 15:30N 37°48' E 023°47'0 0.0
2017-Aug-15 15:00N 37°48' E 023°47'0 0.0
2017-Aug-15 14:30N 37°48' E 023°47'0 0.0
2017-Aug-15 14:00N 37°48' E 023°47'3 6.0
2017-Aug-15 13:30N 37°45' E 023°46'5 9.6
2017-Aug-15 13:00N 37°41' E 023°43'5 9.6
2017-Aug-15 12:31N 37°37' E 023°39'16 9.8
2017-Aug-15 10:53N 37°24' E 023°29'4 0.1
2017-Aug-14 00:34N 37°24' E 023°24'1 4.7
2017-Aug-14 00:18N 37°24' E 023°25'910.6
2017-Aug-13 23:28N 37°26' E 023°36'5410.7
2017-Aug-13 18:24N 37°31' E 024°44'411.2
2017-Aug-13 18:00N 37°31' E 024°49'610.9
2017-Aug-13 17:29N 37°31' E 024°56'510.9
2017-Aug-13 17:00N 37°29' E 025°03'510.7
2017-Aug-13 16:30N 37°28' E 025°09'510.4
2017-Aug-13 16:00N 37°26' E 025°15'4 7.8
2017-Aug-13 15:30N 37°24' E 025°20'1 1.5
2017-Aug-13 14:59N 37°25' E 025°20'0 0.0
2017-Aug-13 14:29N 37°25' E 025°20'0 0.0
2017-Aug-13 13:56N 37°25' E 025°20'0 0.0
2017-Aug-13 13:23N 37°25' E 025°20'0 0.0
2017-Aug-13 12:59N 37°25' E 025°20'0 0.0
2017-Aug-13 12:29N 37°25' E 025°20'0 0.1
2017-Aug-13 11:56N 37°25' E 025°20'1 1.8
2017-Aug-13 11:30N 37°25' E 025°19'0 0.0
2017-Aug-13 11:00N 37°25' E 025°19'0 0.0
2017-Aug-13 10:27N 37°25' E 025°19'0 0.0
2017-Aug-13 10:00N 37°25' E 025°19'0 0.0
2017-Aug-13 09:30N 37°25' E 025°19'0 0.0
2017-Aug-13 08:57N 37°25' E 025°19'0 0.0
2017-Aug-13 08:31N 37°25' E 025°19'0 0.0
2017-Aug-13 08:00N 37°25' E 025°19'0 0.0
2017-Aug-13 07:30N 37°25' E 025°19'0 0.0
2017-Aug-13 07:00N 37°25' E 025°19'0 0.0
2017-Aug-13 06:30N 37°25' E 025°19'0 0.0
2017-Aug-13 06:00N 37°25' E 025°19'0 0.0
2017-Aug-13 05:30N 37°25' E 025°19'0 0.0
2017-Aug-13 05:00N 37°25' E 025°19'0 0.0
2017-Aug-13 04:30N 37°25' E 025°19'0 0.0
2017-Aug-13 04:00N 37°25' E 025°19'0 0.0
2017-Aug-13 03:30N 37°25' E 025°19'0 0.1
2017-Aug-13 03:00N 37°25' E 025°19'0 0.0
2017-Aug-13 02:30N 37°25' E 025°19'0 0.0
2017-Aug-13 02:00N 37°25' E 025°19'0 0.0
2017-Aug-13 01:30N 37°25' E 025°19'0 0.0
2017-Aug-13 01:00N 37°25' E 025°19'0 0.0
2017-Aug-13 00:30N 37°25' E 025°19'0 0.0
2017-Aug-13 00:00N 37°25' E 025°19'0 0.0
2017-Aug-12 23:30N 37°25' E 025°19'0 0.0
2017-Aug-12 23:00N 37°25' E 025°19'0 0.0
2017-Aug-12 22:30N 37°25' E 025°19'0 0.0
2017-Aug-12 22:00N 37°25' E 025°19'0 0.0
2017-Aug-12 21:30N 37°25' E 025°19'0 0.0
2017-Aug-12 21:00N 37°25' E 025°19'0 0.0
2017-Aug-12 20:30N 37°25' E 025°19'0 0.0
2017-Aug-12 20:00N 37°25' E 025°19'0 0.0
2017-Aug-12 19:30N 37°25' E 025°19'0 0.0
2017-Aug-12 19:00N 37°25' E 025°19'0 0.1
2017-Aug-12 18:30N 37°25' E 025°19'0 0.0
2017-Aug-12 18:00N 37°25' E 025°19'0 0.0
2017-Aug-12 17:30N 37°25' E 025°19'0 0.0
2017-Aug-12 17:00N 37°25' E 025°19'0 0.0
2017-Aug-12 16:30N 37°25' E 025°19'0 0.0
2017-Aug-12 16:00N 37°25' E 025°19'0 0.0
2017-Aug-12 15:30N 37°25' E 025°19'0 0.0
2017-Aug-12 15:00N 37°25' E 025°19'0 0.0
2017-Aug-12 14:30N 37°25' E 025°19'0 0.0
2017-Aug-12 14:00N 37°25' E 025°19'0 0.0
2017-Aug-12 13:30N 37°25' E 025°19'0 0.9
2017-Aug-12 13:00N 37°24' E 025°19'3 5.3
2017-Aug-12 12:30N 37°26' E 025°16'510.5
2017-Aug-12 12:00N 37°28' E 025°10'611.2
2017-Aug-12 11:30N 37°31' E 025°04'510.9
2017-Aug-12 11:00N 37°33' E 024°58'510.7
2017-Aug-12 10:30N 37°34' E 024°51'510.5
2017-Aug-12 10:00N 37°35' E 024°45'4810.1
2017-Aug-12 05:15N 37°39' E 023°45'310.3
2017-Aug-12 05:00N 37°41' E 023°42'611.1
2017-Aug-12 04:30N 37°46' E 023°39'510.7
2017-Aug-12 04:00N 37°51' E 023°37'510.2
2017-Aug-12 03:30N 37°56' E 023°39'1 0.9
2017-Aug-12 02:56N 37°56' E 023°39'0 0.0
2017-Aug-12 02:28N 37°56' E 023°39'0 0.0
2017-Aug-12 01:58N 37°56' E 023°39'0 0.0
2017-Aug-12 01:28N 37°56' E 023°39'0 0.0
2017-Aug-12 00:58N 37°56' E 023°39'0 0.0
2017-Aug-12 00:28N 37°56' E 023°39'0 0.0
2017-Aug-11 23:58N 37°56' E 023°39'0 0.0
2017-Aug-11 23:28N 37°56' E 023°39'0 0.0
2017-Aug-11 22:58N 37°56' E 023°39'0 0.0
2017-Aug-11 22:28N 37°56' E 023°39'0 0.0
2017-Aug-11 21:55N 37°56' E 023°39'0 0.0
2017-Aug-11 21:28N 37°56' E 023°39'0 0.0
2017-Aug-11 20:58N 37°56' E 023°39'0 0.0
2017-Aug-11 20:28N 37°56' E 023°39'0 0.0
2017-Aug-11 19:58N 37°56' E 023°39'0 0.0
2017-Aug-11 19:28N 37°56' E 023°39'0 0.0
2017-Aug-11 18:58N 37°56' E 023°39'0 0.0
2017-Aug-11 18:28N 37°56' E 023°39'0 0.0
2017-Aug-11 17:58N 37°56' E 023°39'0 0.0
2017-Aug-11 17:25N 37°56' E 023°39'0 0.0
2017-Aug-11 16:58N 37°56' E 023°39'0 0.0
2017-Aug-11 16:28N 37°56' E 023°39'0 0.0
2017-Aug-11 15:58N 37°56' E 023°39'0 0.0
2017-Aug-11 15:25N 37°56' E 023°39'0 0.0
2017-Aug-11 14:58N 37°56' E 023°39'0 0.0
2017-Aug-11 13:55N 37°56' E 023°39'0 0.0
2017-Aug-11 13:28N 37°56' E 023°39'0 0.0
2017-Aug-11 12:58N 37°56' E 023°39'0 0.0
2017-Aug-11 12:28N 37°56' E 023°39'0 0.0
2017-Aug-11 11:58N 37°56' E 023°39'0 0.0
2017-Aug-11 11:28N 37°56' E 023°39'0 0.0
2017-Aug-11 10:58N 37°56' E 023°39'0 0.0
2017-Aug-11 10:25N 37°56' E 023°39'0 0.0
2017-Aug-11 09:58N 37°56' E 023°39'0 0.0
2017-Aug-11 09:22N 37°56' E 023°39'0 0.0
2017-Aug-11 08:58N 37°56' E 023°39'0 0.0
2017-Aug-11 08:28N 37°56' E 023°39'0 0.0
2017-Aug-11 07:58N 37°56' E 023°39'0 0.0
2017-Aug-11 07:28N 37°56' E 023°39'0 0.0
2017-Aug-11 06:58N 37°56' E 023°39'0 0.0
2017-Aug-11 06:28N 37°56' E 023°39'0 0.0
2017-Aug-11 05:55N 37°56' E 023°39'0 0.0
2017-Aug-11 05:28N 37°56' E 023°39'0 0.0
2017-Aug-11 04:58N 37°56' E 023°39'0 0.0
2017-Aug-11 04:28N 37°56' E 023°39'0 0.0
2017-Aug-11 03:58N 37°56' E 023°39'0 0.0
2017-Aug-11 03:28N 37°56' E 023°39'0 0.0
2017-Aug-11 02:58N 37°56' E 023°39'0 0.0
2017-Aug-11 02:28N 37°56' E 023°39'0 0.0
2017-Aug-11 01:55N 37°56' E 023°39'0 0.0
2017-Aug-11 01:28N 37°56' E 023°39'0 0.0
2017-Aug-11 00:58N 37°56' E 023°39'0 0.0
2017-Aug-11 00:28N 37°56' E 023°39'0 0.0
2017-Aug-10 23:58N 37°56' E 023°39'0 0.0
2017-Aug-10 23:28N 37°56' E 023°39'0 0.0
2017-Aug-10 22:58N 37°56' E 023°39'0 0.0
2017-Aug-10 22:28N 37°56' E 023°39'0 0.0
2017-Aug-10 21:55N 37°56' E 023°39'0 0.0
2017-Aug-10 21:28N 37°56' E 023°39'0 0.0
2017-Aug-10 20:58N 37°56' E 023°39'0 0.0
2017-Aug-10 20:28N 37°56' E 023°39'0 0.0
2017-Aug-10 19:58N 37°56' E 023°39'0 0.0
2017-Aug-10 19:25N 37°56' E 023°39'0 0.0
2017-Aug-10 18:58N 37°56' E 023°39'0 0.0
2017-Aug-10 18:28N 37°56' E 023°39'0 0.0
2017-Aug-10 17:58N 37°56' E 023°39'0 0.0
2017-Aug-10 17:28N 37°56' E 023°39'0 0.0
2017-Aug-10 16:58N 37°56' E 023°39'0 0.0
2017-Aug-10 16:28N 37°56' E 023°39'0 0.0
2017-Aug-10 16:01N 37°56' E 023°39'0 0.0
2017-Aug-10 15:30N 37°56' E 023°39'0 0.0
2017-Aug-10 15:00N 37°56' E 023°39'0 0.0
2017-Aug-10 14:30N 37°56' E 023°39'0 0.0
2017-Aug-10 13:57N 37°56' E 023°39'0 0.0
2017-Aug-10 13:30N 37°56' E 023°39'0 0.0
2017-Aug-10 12:57N 37°56' E 023°39'0 0.0
2017-Aug-10 12:30N 37°56' E 023°39'0 0.0
2017-Aug-10 12:00N 37°56' E 023°39'0 0.0
2017-Aug-10 11:30N 37°56' E 023°39'0 0.0
2017-Aug-10 11:00N 37°56' E 023°39'0 0.0
2017-Aug-10 10:30N 37°56' E 023°39'0 0.0
2017-Aug-10 09:54N 37°56' E 023°39'0 0.0
2017-Aug-10 09:30N 37°56' E 023°39'0 0.0
2017-Aug-10 09:00N 37°56' E 023°39'0 0.0
2017-Aug-10 08:30N 37°56' E 023°39'0 0.0
2017-Aug-10 08:00N 37°56' E 023°39'0 0.0
2017-Aug-10 07:30N 37°56' E 023°39'0 0.0
2017-Aug-10 07:00N 37°56' E 023°39'0 0.0
2017-Aug-10 06:30N 37°56' E 023°39'0 0.0
2017-Aug-10 06:00N 37°56' E 023°39'0 0.0
2017-Aug-10 05:30N 37°56' E 023°39'0 0.0
2017-Aug-10 05:00N 37°56' E 023°39'0 0.0
2017-Aug-10 04:30N 37°56' E 023°39'0 0.0
2017-Aug-10 04:00N 37°56' E 023°39'0 0.0
2017-Aug-10 03:30N 37°56' E 023°39'0 0.0
2017-Aug-10 03:00N 37°56' E 023°39'0 0.0
2017-Aug-10 02:27N 37°56' E 023°39'0 0.0
2017-Aug-10 01:57N 37°56' E 023°39'0 0.0
2017-Aug-10 01:30N 37°56' E 023°39'0 0.0
2017-Aug-10 00:57N 37°56' E 023°39'0 0.0
2017-Aug-10 00:30N 37°56' E 023°39'0 0.0
2017-Aug-10 00:00N 37°56' E 023°39'0 0.0
2017-Aug-09 23:30N 37°56' E 023°39'0 0.0
2017-Aug-09 23:00N 37°56' E 023°39'0 0.0
2017-Aug-09 22:30N 37°56' E 023°39'0 0.0
2017-Aug-09 21:54N 37°56' E 023°39'0 0.0
2017-Aug-09 21:30N 37°56' E 023°39'0 0.0
2017-Aug-09 21:00N 37°56' E 023°39'0 0.0
2017-Aug-09 20:30N 37°56' E 023°39'0 0.0
2017-Aug-09 19:57N 37°56' E 023°39'0 0.0
2017-Aug-09 19:30N 37°56' E 023°39'0 0.0
2017-Aug-09 19:00N 37°56' E 023°39'0 0.0
2017-Aug-09 18:30N 37°56' E 023°39'0 0.0
2017-Aug-09 18:00N 37°56' E 023°39'0 0.0
2017-Aug-09 17:30N 37°56' E 023°39'0 0.0
2017-Aug-09 16:57N 37°56' E 023°39'0 0.0
2017-Aug-09 16:30N 37°56' E 023°39'0 0.0
2017-Aug-09 16:00N 37°56' E 023°39'0 0.0
2017-Aug-09 15:24N 37°56' E 023°39'0 0.0
2017-Aug-09 15:00N 37°56' E 023°39'0 0.0
2017-Aug-09 14:30N 37°56' E 023°39'0 0.0
2017-Aug-09 14:00N 37°56' E 023°39'0 0.0
2017-Aug-09 13:30N 37°56' E 023°39'0 0.0
2017-Aug-09 12:57N 37°56' E 023°39'0 0.0
2017-Aug-09 12:30N 37°56' E 023°39'0 0.0
2017-Aug-09 12:00N 37°56' E 023°39'0 0.0
2017-Aug-09 11:27N 37°56' E 023°39'0 0.0
2017-Aug-09 10:57N 37°56' E 023°39'0 0.0
2017-Aug-09 10:30N 37°56' E 023°39'0 0.0
2017-Aug-09 10:00N 37°56' E 023°39'0 0.0
2017-Aug-09 09:30N 37°56' E 023°39'0 0.0
2017-Aug-09 09:00N 37°56' E 023°39'0 0.0
2017-Aug-09 08:30N 37°56' E 023°39'0 0.2
2017-Aug-09 08:00N 37°56' E 023°39'0 0.0
2017-Aug-09 07:30N 37°56' E 023°39'0 0.0
2017-Aug-09 06:57N 37°56' E 023°39'0 0.0
2017-Aug-09 06:30N 37°56' E 023°39'0 0.0
2017-Aug-09 06:00N 37°56' E 023°39'0 0.0
2017-Aug-09 05:30N 37°56' E 023°39'0 0.0
2017-Aug-09 05:00N 37°56' E 023°39'0 0.0
2017-Aug-09 04:29N 37°56' E 023°39'0 0.0
2017-Aug-09 03:59N 37°56' E 023°39'0 0.0
2017-Aug-09 03:29N 37°56' E 023°39'0 0.0
2017-Aug-09 02:59N 37°56' E 023°39'0 0.0
2017-Aug-09 02:26N 37°56' E 023°39'0 0.0
2017-Aug-09 01:59N 37°56' E 023°39'0 0.0
2017-Aug-09 01:29N 37°56' E 023°39'0 0.0
2017-Aug-09 00:59N 37°56' E 023°39'0 0.0
2017-Aug-09 00:29N 37°56' E 023°39'0 0.0
2017-Aug-08 23:59N 37°56' E 023°39'0 0.0
2017-Aug-08 23:29N 37°56' E 023°39'0 0.0
2017-Aug-08 22:59N 37°56' E 023°39'0 0.0
2017-Aug-08 22:29N 37°56' E 023°39'0 0.0
2017-Aug-08 21:59N 37°56' E 023°39'0 0.0
2017-Aug-08 21:29N 37°56' E 023°39'0 0.0
2017-Aug-08 20:59N 37°56' E 023°39'0 0.0
2017-Aug-08 20:20N 37°56' E 023°39'0 0.0
2017-Aug-08 19:59N 37°56' E 023°39'0 0.0
2017-Aug-08 19:29N 37°56' E 023°39'0 0.0
2017-Aug-08 18:59N 37°56' E 023°39'0 0.0
2017-Aug-08 18:29N 37°56' E 023°39'0 0.0
2017-Aug-08 17:59N 37°56' E 023°39'0 0.0
2017-Aug-08 17:29N 37°56' E 023°39'0 0.0
2017-Aug-08 16:59N 37°56' E 023°39'0 0.0
2017-Aug-08 16:29N 37°56' E 023°39'0 0.0
2017-Aug-08 15:59N 37°56' E 023°39'0 0.0
2017-Aug-08 15:29N 37°56' E 023°39'0 0.0
2017-Aug-08 14:56N 37°56' E 023°39'0 0.0
2017-Aug-08 14:29N 37°56' E 023°39'0 0.0
2017-Aug-08 13:56N 37°56' E 023°39'0 0.0
2017-Aug-08 13:29N 37°56' E 023°39'0 0.0
2017-Aug-08 12:56N 37°56' E 023°39'0 0.0
2017-Aug-08 12:29N 37°56' E 023°39'0 0.0
2017-Aug-08 11:59N 37°56' E 023°39'0 0.0
2017-Aug-08 11:29N 37°56' E 023°39'0 0.0
2017-Aug-08 10:59N 37°56' E 023°39'0 0.0
2017-Aug-08 10:29N 37°56' E 023°39'0 0.0
2017-Aug-08 09:59N 37°56' E 023°39'0 0.0
2017-Aug-08 09:20N 37°56' E 023°39'0 0.0
2017-Aug-08 08:56N 37°56' E 023°39'0 0.0
2017-Aug-08 08:26N 37°56' E 023°39'0 0.0
2017-Aug-08 07:59N 37°56' E 023°39'0 0.0
2017-Aug-08 07:29N 37°56' E 023°39'0 0.0
2017-Aug-08 06:59N 37°56' E 023°39'0 0.0
2017-Aug-08 06:29N 37°56' E 023°39'0 0.0
2017-Aug-08 05:59N 37°56' E 023°39'0 0.0
2017-Aug-08 05:29N 37°56' E 023°39'0 0.0
2017-Aug-08 04:59N 37°56' E 023°39'0 0.0
2017-Aug-08 04:29N 37°56' E 023°39'0 0.0
2017-Aug-08 03:59N 37°56' E 023°39'0 0.0
2017-Aug-08 03:29N 37°56' E 023°39'0 0.0
2017-Aug-08 02:59N 37°56' E 023°39'0 0.0
2017-Aug-08 02:29N 37°56' E 023°39'0 0.0
2017-Aug-08 01:56N 37°56' E 023°39'0 0.0
2017-Aug-08 01:29N 37°56' E 023°39'0 0.0
2017-Aug-08 00:59N 37°56' E 023°39'0 0.0
2017-Aug-08 00:26N 37°56' E 023°39'0 0.0
2017-Aug-07 23:59N 37°56' E 023°39'0 0.0
2017-Aug-07 23:29N 37°56' E 023°39'0 0.0
2017-Aug-07 22:59N 37°56' E 023°39'0 0.0
2017-Aug-07 22:29N 37°56' E 023°39'0 0.0
2017-Aug-07 21:59N 37°56' E 023°39'0 0.0
2017-Aug-07 21:29N 37°56' E 023°39'0 0.0
2017-Aug-07 20:56N 37°56' E 023°39'0 0.0
2017-Aug-07 20:29N 37°56' E 023°39'0 0.0
2017-Aug-07 19:59N 37°56' E 023°39'0 0.0
2017-Aug-07 19:29N 37°56' E 023°39'0 0.0
2017-Aug-07 18:59N 37°56' E 023°39'0 0.0
2017-Aug-07 18:29N 37°56' E 023°39'0 0.0
2017-Aug-07 17:59N 37°56' E 023°39'0 0.0
2017-Aug-07 17:28N 37°56' E 023°39'0 0.0
2017-Aug-07 16:58N 37°56' E 023°39'0 0.0
2017-Aug-07 16:28N 37°56' E 023°39'0 0.0
2017-Aug-07 15:58N 37°56' E 023°39'0 0.0
2017-Aug-07 15:28N 37°56' E 023°39'0 0.0
2017-Aug-07 14:58N 37°56' E 023°39'0 0.0
2017-Aug-07 14:25N 37°56' E 023°39'0 0.0
2017-Aug-07 13:58N 37°56' E 023°39'0 0.0
2017-Aug-07 13:28N 37°56' E 023°39'0 0.0
2017-Aug-07 12:58N 37°56' E 023°39'0 0.0
2017-Aug-07 12:28N 37°56' E 023°39'0 0.0
2017-Aug-07 11:55N 37°56' E 023°39'0 0.0
2017-Aug-07 11:28N 37°56' E 023°39'0 0.0
2017-Aug-07 10:58N 37°56' E 023°39'0 0.0
2017-Aug-07 10:28N 37°56' E 023°39'0 0.0
2017-Aug-07 09:58N 37°56' E 023°39'0 0.0
2017-Aug-07 09:28N 37°56' E 023°39'0 0.0
2017-Aug-07 08:52N 37°56' E 023°39'0 0.0
2017-Aug-07 08:28N 37°56' E 023°39'0 0.0
2017-Aug-07 07:58N 37°56' E 023°39'0 0.0
2017-Aug-07 07:28N 37°56' E 023°39'0 0.0
2017-Aug-07 06:55N 37°56' E 023°39'0 0.0
2017-Aug-07 06:28N 37°56' E 023°39'0 0.0
2017-Aug-07 05:58N 37°56' E 023°39'0 0.0
2017-Aug-07 05:28N 37°56' E 023°39'0 0.0
2017-Aug-07 04:55N 37°56' E 023°39'0 0.0
2017-Aug-07 04:28N 37°56' E 023°39'0 0.0
2017-Aug-07 03:58N 37°56' E 023°39'0 0.0
2017-Aug-07 03:28N 37°56' E 023°39'0 0.0
2017-Aug-07 02:58N 37°56' E 023°39'0 0.0
2017-Aug-07 02:25N 37°56' E 023°39'0 0.0
2017-Aug-07 01:58N 37°56' E 023°39'0 0.0
2017-Aug-07 01:28N 37°56' E 023°39'0 0.0
2017-Aug-07 00:58N 37°56' E 023°39'0 0.0
2017-Aug-07 00:25N 37°56' E 023°39'0 0.0
2017-Aug-06 23:58N 37°56' E 023°39'0 0.0
2017-Aug-06 23:28N 37°56' E 023°39'0 0.0
2017-Aug-06 22:58N 37°56' E 023°39'0 0.0
2017-Aug-06 22:28N 37°56' E 023°39'0 0.0
2017-Aug-06 21:58N 37°56' E 023°39'0 0.0
2017-Aug-06 21:28N 37°56' E 023°39'0 0.0
2017-Aug-06 20:58N 37°56' E 023°39'0 0.0
2017-Aug-06 20:28N 37°56' E 023°39'0 0.0
2017-Aug-06 19:58N 37°56' E 023°39'0 0.0
2017-Aug-06 19:25N 37°56' E 023°39'0 0.0
2017-Aug-06 18:58N 37°56' E 023°39'0 0.0
2017-Aug-06 18:28N 37°56' E 023°39'0 0.0
2017-Aug-06 17:58N 37°56' E 023°39'0 0.0
2017-Aug-06 17:25N 37°56' E 023°39'0 0.0
2017-Aug-06 16:58N 37°56' E 023°39'0 0.0
2017-Aug-06 16:28N 37°56' E 023°39'0 0.0
2017-Aug-06 15:55N 37°56' E 023°39'0 0.0
2017-Aug-06 15:28N 37°56' E 023°39'0 0.0
2017-Aug-06 14:55N 37°56' E 023°39'0 0.0
2017-Aug-06 14:25N 37°56' E 023°39'0 0.0
2017-Aug-06 13:55N 37°56' E 023°39'0 0.0
2017-Aug-06 13:28N 37°56' E 023°39'0 0.0
2017-Aug-06 12:55N 37°56' E 023°39'0 0.0
2017-Aug-06 12:28N 37°56' E 023°39'0 0.0
2017-Aug-06 11:55N 37°56' E 023°39'0 0.0
2017-Aug-06 11:28N 37°56' E 023°39'0 0.0
2017-Aug-06 10:55N 37°56' E 023°39'0 0.0
2017-Aug-06 10:25N 37°56' E 023°39'0 0.0
2017-Aug-06 09:55N 37°56' E 023°39'0 0.0
2017-Aug-06 09:28N 37°56' E 023°39'0 0.0
2017-Aug-06 08:58N 37°56' E 023°39'0 0.0
2017-Aug-06 08:28N 37°56' E 023°39'0 0.0
2017-Aug-06 07:55N 37°56' E 023°39'0 0.0
2017-Aug-06 07:28N 37°56' E 023°39'  

Dump ship's entire track history